Time;durP1;ratioP1;P1;durP2;ratioP2;P2;SDS_P1;SDS_P2;PMS_P1;PMS_P2;Temp;Humidity;BMP_temperature;BMP_pressure;BME280_temperature;BME280_humidity;BME280_pressure;Samples;Min_cycle;Max_cycle;Signal;HPM_P1;HPM_P2
2021/06/21 00:00:59;;;;;;;5.93;2.80;;;22.20;82.10;;;;;;5052743;28;20025;-63
2021/06/21 00:03:24;;;;;;;6.70;2.53;;;22.20;82.30;;;;;;5052494;28;20021;-67
2021/06/21 00:05:50;;;;;;;6.25;2.60;;;22.30;82.40;;;;;;5052419;28;20021;-69
2021/06/21 00:08:16;;;;;;;6.68;2.38;;;22.20;82.00;;;;;;5052459;28;20025;-64
2021/06/21 00:10:42;;;;;;;5.95;2.28;;;22.20;81.70;;;;;;5034218;28;20082;-67
2021/06/21 00:13:07;;;;;;;9.38;2.40;;;22.40;80.90;;;;;;5052422;28;20577;-67
2021/06/21 00:15:33;;;;;;;9.40;2.47;;;22.30;81.50;;;;;;5051670;28;20096;-68
2021/06/21 00:17:59;;;;;;;6.93;2.60;;;22.40;81.40;;;;;;5031879;28;20029;-68
2021/06/21 00:20:25;;;;;;;6.15;2.90;;;22.10;82.00;;;;;;5049510;28;20021;-68
2021/06/21 00:22:53;;;;;;;10.27;3.45;;;21.90;82.70;;;;;;5049945;28;20581;-67
2021/06/21 00:25:21;;;;;;;7.75;2.97;;;22.00;82.50;;;;;;5051695;28;20017;-67
2021/06/21 00:27:47;;;;;;;7.90;3.40;;;21.80;83.10;;;;;;5057214;28;20032;-66
2021/06/21 00:30:14;;;;;;;7.22;3.00;;;21.80;83.30;;;;;;5064271;28;20489;-67
2021/06/21 00:32:42;;;;;;;7.03;3.42;;;21.90;83.00;;;;;;5070226;28;20070;-68
2021/06/21 00:35:09;;;;;;;8.10;3.60;;;21.80;83.10;;;;;;5069704;28;20029;-67
2021/06/21 00:37:35;;;;;;;7.22;3.88;;;21.80;83.30;;;;;;5051187;28;20035;-66
2021/06/21 00:40:04;;;;;;;10.60;3.88;;;21.80;83.50;;;;;;5070505;28;20032;-67
2021/06/21 00:42:29;;;;;;;5.60;3.35;;;21.80;83.20;;;;;;5071644;28;20112;-68
2021/06/21 00:44:55;;;;;;;6.85;3.40;;;21.70;83.50;;;;;;5071879;28;20104;-68
2021/06/21 00:47:21;;;;;;;5.95;2.80;;;21.80;83.60;;;;;;5071497;28;20115;-66
2021/06/21 00:49:46;;;;;;;7.88;3.47;;;21.70;83.40;;;;;;5052217;28;20035;-69
2021/06/21 00:52:16;;;;;;;11.23;3.80;;;21.60;83.60;;;;;;5069438;28;20078;-68
2021/06/21 00:54:43;;;;;;;6.93;3.00;;;21.60;83.80;;;;;;5069455;28;20028;-68
2021/06/21 00:57:09;;;;;;;5.95;2.90;;;21.70;83.20;;;;;;5070092;28;20459;-64
2021/06/21 00:59:35;;;;;;;7.05;3.10;;;21.50;83.60;;;;;;5071545;28;20175;-67
2021/06/21 01:02:01;;;;;;;4.95;2.65;;;21.50;83.80;;;;;;5053598;28;20111;-67
2021/06/21 01:04:26;;;;;;;5.13;2.35;;;21.40;83.20;;;;;;5053606;28;20056;-64
2021/06/21 01:06:52;;;;;;;4.78;2.40;;;21.40;82.80;;;;;;5052717;28;20024;-67
2021/06/21 01:09:18;;;;;;;4.50;2.10;;;21.30;82.30;;;;;;5051716;28;20044;-68
2021/06/21 01:12:08;;;;;;;4.82;1.95;;;21.40;81.40;;;;;;5051352;28;20426;-68
2021/06/21 01:14:38;;;;;;;6.53;2.35;;;21.50;81.20;;;;;;5051127;28;20447;-68
2021/06/21 01:17:16;;;;;;;4.93;1.90;;;21.50;81.00;;;;;;5068698;28;20032;-68
2021/06/21 01:20:15;;;;;;;4.82;1.98;;;21.50;80.70;;;;;;5068716;28;20127;-69
2021/06/21 01:23:12;;;;;;;4.90;1.90;;;21.40;80.80;;;;;;5051105;28;20027;-63
2021/06/21 01:25:40;;;;;;;4.65;2.15;;;21.40;80.90;;;;;;5070534;28;20025;-67
2021/06/21 01:28:28;;;;;;;5.90;2.22;;;21.20;80.90;;;;;;5070853;28;20024;-69
2021/06/21 01:31:08;;;;;;;8.35;2.17;;;21.20;81.00;;;;;;5050678;28;20036;-68
2021/06/21 01:33:36;;;;;;;4.97;2.05;;;21.20;80.90;;;;;;5030963;28;20032;-70
2021/06/21 01:36:06;;;;;;;4.82;2.33;;;21.20;80.70;;;;;;5048646;28;20041;-69
2021/06/21 01:38:43;;;;;;;5.72;2.10;;;21.10;80.80;;;;;;5048574;28;20029;-68
2021/06/21 01:41:24;;;;;;;6.18;2.30;;;21.20;81.00;;;;;;5051098;28;20022;-67
2021/06/21 01:43:51;;;;;;;3.53;1.98;;;21.10;81.50;;;;;;5033159;28;20800;-67
2021/06/21 01:46:19;;;;;;;9.35;1.65;;;21.30;81.10;;;;;;5051096;28;20104;-64
2021/06/21 01:48:50;;;;;;;6.07;2.17;;;21.50;80.40;;;;;;5048801;28;20079;-67
2021/06/21 01:51:17;;;;;;;5.00;2.20;;;21.40;80.90;;;;;;5048816;28;20079;-68
2021/06/21 01:53:47;;;;;;;5.57;2.30;;;21.50;81.00;;;;;;5067153;28;20039;-69
2021/06/21 01:56:20;;;;;;;4.43;1.90;;;21.50;81.20;;;;;;5052102;28;20033;-70
2021/06/21 01:58:47;;;;;;;5.55;2.00;;;21.50;81.00;;;;;;5070378;28;20033;-67
2021/06/21 02:01:16;;;;;;;5.82;2.10;;;21.50;80.80;;;;;;5052839;28;20482;-68
2021/06/21 02:03:50;;;;;;;5.13;1.98;;;21.50;81.30;;;;;;5049882;28;20042;-67
2021/06/21 02:06:16;;;;;;;5.35;2.10;;;21.60;81.10;;;;;;5063318;28;20365;-66
2021/06/21 02:08:44;;;;;;;5.75;2.10;;;21.60;81.00;;;;;;5086372;22;20071;-76
2021/06/21 02:11:10;;;;;;;5.10;2.00;;;21.50;81.00;;;;;;5052711;28;20428;-77
2021/06/21 02:13:37;;;;;;;4.55;2.17;;;21.30;81.90;;;;;;5069292;28;20053;-76
2021/06/21 02:16:04;;;;;;;6.90;2.33;;;21.00;83.00;;;;;;5052564;28;20390;-76
2021/06/21 02:18:31;;;;;;;4.72;1.92;;;21.20;82.20;;;;;;5072019;28;20060;-76
2021/06/21 02:20:57;;;;;;;3.90;2.20;;;21.00;82.90;;;;;;5056192;28;20032;-76
2021/06/21 02:23:24;;;;;;;4.97;2.08;;;21.00;83.00;;;;;;5054561;28;20028;-76
2021/06/21 02:25:52;;;;;;;5.07;1.85;;;21.00;82.90;;;;;;5056875;28;20116;-76
2021/06/21 02:28:20;;;;;;;3.45;1.77;;;21.00;82.90;;;;;;5056295;28;20031;-76
2021/06/21 02:30:48;;;;;;;4.13;1.70;;;21.00;82.80;;;;;;5056455;28;20032;-75
2021/06/21 02:33:15;;;;;;;4.90;1.90;;;21.10;82.60;;;;;;5054528;28;20047;-76
2021/06/21 02:35:41;;;;;;;5.97;2.00;;;21.10;82.20;;;;;;5046864;28;20029;-77
2021/06/21 02:38:06;;;;;;;4.20;1.90;;;21.00;83.00;;;;;;5054551;28;20025;-75
2021/06/21 02:40:32;;;;;;;5.70;2.15;;;20.80;84.20;;;;;;5056576;28;20393;-77
2021/06/21 02:42:57;;;;;;;5.00;2.33;;;21.10;82.30;;;;;;5074460;28;20142;-76
2021/06/21 02:45:23;;;;;;;5.25;2.03;;;21.10;82.10;;;;;;5057090;28;20016;-76
2021/06/21 02:47:49;;;;;;;5.57;2.47;;;21.00;82.50;;;;;;5054345;28;20060;-76
2021/06/21 02:50:15;;;;;;;4.60;2.10;;;21.00;82.80;;;;;;5054509;28;20123;-77
2021/06/21 02:53:02;;;;;;;4.20;2.17;;;20.90;83.60;;;;;;5072422;28;20024;-76
2021/06/21 02:55:44;;;;;;;6.05;2.40;;;21.00;82.60;;;;;;5074151;28;20111;-77
2021/06/21 02:58:28;;;;;;;4.57;2.20;;;21.00;82.70;;;;;;5074077;28;20036;-77
2021/06/21 03:00:59;;;;;;;6.78;2.42;;;20.90;83.00;;;;;;5055815;28;20025;-76
2021/06/21 03:03:30;;;;;;;7.40;3.17;;;21.10;82.00;;;;;;5054875;28;20115;-76
2021/06/21 03:05:56;;;;;;;;;;;20.80;83.20;;;;;;5054875;28;20020;-76
2021/06/21 03:08:22;;;;;;;5.03;2.70;;;20.80;83.40;;;;;;5071688;28;19918;-76
2021/06/21 03:10:49;;;;;;;5.28;2.72;;;20.90;83.20;;;;;;5073236;28;20038;-77
2021/06/21 03:13:17;;;;;;;6.55;2.55;;;20.90;82.60;;;;;;5055837;28;20041;-76
2021/06/21 03:15:43;;;;;;;4.72;2.55;;;21.00;82.70;;;;;;5056147;28;20404;-76
2021/06/21 03:18:09;;;;;;;5.70;2.65;;;20.90;82.70;;;;;;5072330;28;20029;-77
2021/06/21 03:20:35;;;;;;;6.18;2.75;;;20.90;82.60;;;;;;5053691;28;20017;-76
2021/06/21 03:23:03;;;;;;;4.93;2.40;;;21.00;82.60;;;;;;5071796;28;20023;-75
2021/06/21 03:25:30;;;;;;;6.20;3.10;;;20.90;82.60;;;;;;5072439;28;20079;-76
2021/06/21 03:27:57;;;;;;;6.57;3.17;;;20.90;83.00;;;;;;5054808;28;20025;-77
2021/06/21 03:30:24;;;;;;;6.55;3.03;;;20.90;82.20;;;;;;5056219;28;20055;-77
2021/06/21 03:32:52;;;;;;;6.45;3.20;;;21.00;81.90;;;;;;5053518;28;20107;-78
2021/06/21 03:35:20;;;;;;;7.10;3.65;;;21.00;82.00;;;;;;5053170;28;20027;-77
2021/06/21 03:37:46;;;;;;;8.07;3.55;;;20.90;82.40;;;;;;5035201;28;20036;-77
2021/06/21 03:40:12;;;;;;;8.02;3.78;;;20.90;82.80;;;;;;5053318;28;20025;-76
2021/06/21 03:42:39;;;;;;;5.32;3.22;;;21.00;82.40;;;;;;5052992;28;20053;-77
2021/06/21 03:45:07;;;;;;;6.85;3.55;;;21.00;82.40;;;;;;5053419;28;20021;-77
2021/06/21 03:47:35;;;;;;;5.55;3.65;;;21.00;81.80;;;;;;5052897;28;20029;-77
2021/06/21 03:50:01;;;;;;;7.05;3.80;;;20.80;83.50;;;;;;5034164;28;20025;-76
2021/06/21 03:52:26;;;;;;;7.07;3.92;;;21.00;82.20;;;;;;5046251;28;20033;-76
2021/06/21 03:55:06;;;;;;;6.60;4.03;;;20.80;83.30;;;;;;5052510;28;20424;-76
2021/06/21 03:57:38;;;;;;;7.63;3.97;;;20.80;83.00;;;;;;5053098;28;20032;-77
2021/06/21 04:00:10;;;;;;;5.60;3.40;;;20.80;83.20;;;;;;5072928;28;20791;-75
2021/06/21 04:02:35;;;;;;;8.45;5.30;;;21.00;81.90;;;;;;5066688;28;20052;-75
2021/06/21 04:05:01;;;;;;;8.65;4.30;;;20.60;84.80;;;;;;5065906;28;20133;-77
2021/06/21 04:07:27;;;;;;;7.55;3.80;;;20.60;84.50;;;;;;5062718;28;20035;-76
2021/06/21 04:09:52;;;;;;;5.32;3.70;;;20.80;83.20;;;;;;5067438;28;20034;-78
2021/06/21 04:12:18;;;;;;;6.03;3.35;;;20.90;83.00;;;;;;5038210;28;20101;-77
2021/06/21 04:14:43;;;;;;;6.97;4.03;;;20.70;84.40;;;;;;5072475;28;20393;-77
2021/06/21 04:17:09;;;;;;;6.20;3.28;;;20.80;84.40;;;;;;5052695;28;20024;-76
2021/06/21 04:19:34;;;;;;;5.25;2.78;;;20.90;83.40;;;;;;5070113;28;20512;-76
2021/06/21 04:22:01;;;;;;;6.75;4.28;;;21.20;81.30;;;;;;5033133;28;20678;-76
2021/06/21 04:24:27;;;;;;;6.65;3.35;;;21.30;80.60;;;;;;5050976;28;20024;-76
2021/06/21 04:26:52;;;;;;;6.85;4.35;;;20.80;84.30;;;;;;5060871;28;20509;-76
2021/06/21 04:29:18;;;;;;;4.93;2.95;;;20.60;84.80;;;;;;5054029;28;20517;-77
2021/06/21 04:31:43;;;;;;;6.78;3.28;;;20.90;83.40;;;;;;5066251;28;20456;-78
2021/06/21 04:34:09;;;;;;;5.18;3.05;;;20.90;82.90;;;;;;5068997;28;20028;-75
2021/06/21 04:36:34;;;;;;;6.90;4.20;;;20.90;83.20;;;;;;5069823;28;20029;-76
2021/06/21 04:39:00;;;;;;;5.32;2.92;;;21.00;83.10;;;;;;5057383;28;20025;-76
2021/06/21 04:41:26;;;;;;;7.80;3.78;;;20.80;84.20;;;;;;5033596;28;20029;-77
2021/06/21 04:43:51;;;;;;;7.30;4.72;;;21.10;82.30;;;;;;5055926;28;20060;-76
2021/06/21 04:46:17;;;;;;;6.28;3.17;;;20.70;84.70;;;;;;5053064;28;20564;-77
2021/06/21 04:48:43;;;;;;;6.38;3.55;;;20.80;83.60;;;;;;5071134;28;20045;-77
2021/06/21 04:51:09;;;;;;;5.75;3.45;;;20.70;83.70;;;;;;5052330;28;20024;-76
2021/06/21 04:53:34;;;;;;;7.57;3.58;;;21.00;82.20;;;;;;5071076;28;20035;-76
2021/06/21 04:56:00;;;;;;;6.20;2.85;;;20.70;84.20;;;;;;5052795;28;20033;-76
2021/06/21 04:58:26;;;;;;;5.03;2.78;;;21.10;82.30;;;;;;5047471;28;20028;-74
2021/06/21 05:00:51;;;;;;;5.85;2.47;;;21.50;80.40;;;;;;5060593;28;20112;-76
2021/06/21 05:03:17;;;;;;;7.38;2.78;;;21.80;79.20;;;;;;5057333;28;20104;-75
2021/06/21 05:05:42;;;;;;;5.80;2.58;;;22.00;78.00;;;;;;5063303;28;20025;-76
2021/06/21 05:08:08;;;;;;;5.82;2.30;;;22.10;77.80;;;;;;5058762;28;20040;-75
2021/06/21 05:10:34;;;;;;;3.75;2.05;;;22.20;77.30;;;;;;5045819;28;20127;-75
2021/06/21 05:12:59;;;;;;;7.00;2.85;;;22.20;76.70;;;;;;5065249;28;20084;-74
2021/06/21 05:15:25;;;;;;;5.18;2.45;;;22.30;76.20;;;;;;5064744;28;20033;-74
2021/06/21 05:17:50;;;;;;;8.10;2.88;;;22.30;76.00;;;;;;5045918;28;20037;-74
2021/06/21 05:20:16;;;;;;;7.55;2.60;;;22.30;76.10;;;;;;5042891;28;20073;-76
2021/06/21 05:22:42;;;;;;;5.25;2.28;;;22.30;76.10;;;;;;5033447;28;20017;-73
2021/06/21 05:25:08;;;;;;;5.18;2.60;;;22.30;75.90;;;;;;5039630;28;20402;-74
2021/06/21 05:27:34;;;;;;;4.80;2.45;;;22.30;75.40;;;;;;5054398;28;20032;-74
2021/06/21 05:30:00;;;;;;;4.57;2.40;;;22.30;75.60;;;;;;5035652;28;20029;-75
2021/06/21 05:32:26;;;;;;;5.47;2.40;;;22.40;75.60;;;;;;5037105;28;20032;-74
2021/06/21 05:34:52;;;;;;;5.63;2.40;;;22.30;75.50;;;;;;5050941;28;20398;-76
2021/06/21 05:37:18;;;;;;;6.78;1.77;;;22.40;76.10;;;;;;5034968;28;20594;-74
2021/06/21 05:39:43;;;;;;;4.35;2.00;;;22.40;76.00;;;;;;5035110;28;20025;-73
2021/06/21 05:42:09;;;;;;;4.47;2.00;;;22.40;75.70;;;;;;5051043;28;20406;-74
2021/06/21 05:44:36;;;;;;;2.45;1.50;;;22.50;75.80;;;;;;5053444;28;21506;-75
2021/06/21 05:47:03;;;;;;;3.65;1.80;;;22.50;75.80;;;;;;5035728;28;20148;-75
2021/06/21 05:49:29;;;;;;;2.83;1.83;;;22.50;75.70;;;;;;5050875;28;20021;-74
2021/06/21 05:51:55;;;;;;;3.70;1.70;;;22.50;75.70;;;;;;5051391;28;20521;-73
2021/06/21 05:54:21;;;;;;;7.35;1.83;;;22.50;75.70;;;;;;5032933;28;20045;-77
2021/06/21 05:56:46;;;;;;;5.07;1.90;;;22.60;75.60;;;;;;5057648;28;20013;-76
2021/06/21 05:59:12;;;;;;;4.22;1.40;;;22.60;75.70;;;;;;5055799;28;20032;-75
2021/06/21 06:01:37;;;;;;;5.25;1.60;;;22.60;75.70;;;;;;5059348;28;20061;-74
2021/06/21 06:04:03;;;;;;;5.68;1.88;;;22.60;75.60;;;;;;5037932;28;20524;-75
2021/06/21 06:06:29;;;;;;;5.53;1.50;;;22.60;75.70;;;;;;5055347;28;20101;-74
2021/06/21 06:08:54;;;;;;;5.78;1.40;;;22.60;75.80;;;;;;5055186;28;20040;-75
2021/06/21 06:11:20;;;;;;;4.18;1.20;;;22.60;75.60;;;;;;5060423;28;20044;-75
2021/06/21 06:13:45;;;;;;;4.88;1.33;;;22.60;75.70;;;;;;5033113;28;20097;-77
2021/06/21 06:16:11;;;;;;;4.07;1.15;;;22.60;75.60;;;;;;5032971;28;20365;-75
2021/06/21 06:18:36;;;;;;;9.68;1.92;;;22.60;75.70;;;;;;5059636;28;20075;-75
2021/06/21 06:21:02;;;;;;;5.45;1.52;;;22.60;75.70;;;;;;5049725;28;20040;-74
2021/06/21 06:23:28;;;;;;;8.95;1.70;;;22.70;75.90;;;;;;5037095;28;20033;-76
2021/06/21 06:25:53;;;;;;;18.65;2.63;;;22.70;75.60;;;;;;5044807;28;20486;-72
2021/06/21 06:28:19;;;;;;;11.65;2.17;;;22.70;76.40;;;;;;5037887;28;20682;-71
2021/06/21 06:30:45;;;;;;;12.27;2.10;;;22.70;77.00;;;;;;5057938;28;20747;-75
2021/06/21 06:33:10;;;;;;;7.22;1.77;;;22.70;76.60;;;;;;5039919;28;20029;-73
2021/06/21 06:35:36;;;;;;;8.77;1.60;;;22.70;76.90;;;;;;5060396;28;20030;-75
2021/06/21 06:38:02;;;;;;;6.03;1.65;;;22.70;76.90;;;;;;5067677;28;20032;-74
2021/06/21 06:40:27;;;;;;;11.52;2.00;;;22.70;76.70;;;;;;5054190;28;20043;-75
2021/06/21 06:42:54;;;;;;;10.25;1.77;;;22.70;76.70;;;;;;5030006;28;20067;-73
2021/06/21 06:45:21;;;;;;;8.98;1.73;;;22.70;76.60;;;;;;5040689;28;20029;-74
2021/06/21 06:47:47;;;;;;;10.48;1.70;;;22.70;76.80;;;;;;5054192;28;20119;-72
2021/06/21 06:50:14;;;;;;;6.75;1.35;;;22.70;76.70;;;;;;5054924;28;20093;-74
2021/06/21 06:52:40;;;;;;;9.52;1.65;;;22.70;76.70;;;;;;5037982;28;20025;-74
2021/06/21 06:57:37;;;;;;;5.38;1.17;;;22.80;76.20;;;;;;5054576;28;20119;-75
2021/06/21 07:00:06;;;;;;;4.47;1.37;;;22.80;76.40;;;;;;5066768;28;20077;-76
2021/06/21 07:02:31;;;;;;;6.72;1.38;;;22.80;76.40;;;;;;5061620;28;20269;-74
2021/06/21 07:04:57;;;;;;;12.43;1.60;;;22.80;76.30;;;;;;5059928;28;20394;-76
2021/06/21 07:07:23;;;;;;;4.50;1.63;;;22.80;75.90;;;;;;5045129;28;20028;-76
2021/06/21 07:09:48;;;;;;;6.53;1.65;;;22.80;76.50;;;;;;5046777;28;20393;-76
2021/06/21 07:12:14;;;;;;;5.22;1.13;;;22.80;76.60;;;;;;5072695;28;20028;-75
2021/06/21 07:14:39;;;;;;;4.03;1.20;;;22.70;76.50;;;;;;5056426;28;20029;-77
2021/06/21 07:17:05;;;;;;;4.85;1.70;;;22.70;76.50;;;;;;5073485;28;20032;-76
2021/06/21 07:19:31;;;;;;;3.53;1.17;;;22.70;76.50;;;;;;5056275;28;20024;-77
2021/06/21 07:21:57;;;;;;;3.72;1.10;;;22.70;76.60;;;;;;5066486;28;20017;-76
2021/06/21 07:24:23;;;;;;;5.50;1.10;;;22.80;76.30;;;;;;5054122;28;20147;-76
2021/06/21 07:26:50;;;;;;;2.45;1.00;;;22.70;76.30;;;;;;5045533;28;20181;-74
2021/06/21 07:29:16;;;;;;;3.13;1.10;;;22.80;76.30;;;;;;5055607;28;20061;-75
2021/06/21 07:31:43;;;;;;;2.78;1.15;;;22.80;76.30;;;;;;5073184;28;20052;-76
2021/06/21 07:34:08;;;;;;;1.95;1.17;;;22.70;76.20;;;;;;5053969;28;20078;-76
2021/06/21 07:36:34;;;;;;;2.95;1.20;;;22.80;76.30;;;;;;5073475;28;20424;-75
2021/06/21 07:39:00;;;;;;;4.63;0.77;;;22.80;76.10;;;;;;5072972;28;20039;-75
2021/06/21 07:41:25;;;;;;;4.10;1.10;;;22.80;76.10;;;;;;5073872;28;20024;-76
2021/06/21 07:43:51;;;;;;;2.47;1.00;;;22.80;76.00;;;;;;5073427;28;20024;-76
2021/06/21 07:46:17;;;;;;;3.42;0.95;;;22.80;75.70;;;;;;5049987;28;20079;-76
2021/06/21 07:48:43;;;;;;;2.13;0.93;;;22.80;75.60;;;;;;5053924;28;20029;-76
2021/06/21 07:51:14;;;;;;;2.85;1.00;;;22.80;75.40;;;;;;5053334;28;20487;-76
2021/06/21 07:53:41;;;;;;;1.77;0.83;;;22.80;75.30;;;;;;5035506;28;20029;-76
2021/06/21 07:56:08;;;;;;;1.58;0.77;;;22.80;75.20;;;;;;5053380;28;20303;-75
2021/06/21 07:58:34;;;;;;;2.63;0.95;;;22.90;75.20;;;;;;5052760;28;20029;-76
2021/06/21 08:01:00;;;;;;;1.90;0.85;;;22.90;75.20;;;;;;5053149;28;20053;-76
2021/06/21 08:03:26;;;;;;;2.50;0.80;;;22.90;75.10;;;;;;5053153;28;20064;-77
2021/06/21 08:05:52;;;;;;;3.53;0.80;;;22.90;75.00;;;;;;5035255;28;20017;-75
2021/06/21 08:08:17;;;;;;;2.00;0.90;;;22.90;75.10;;;;;;5040967;22;20038;-66
2021/06/21 08:10:44;;;;;;;2.85;0.80;;;22.90;75.00;;;;;;5023485;28;20395;-67
2021/06/21 08:13:09;;;;;;;3.22;1.00;;;22.90;75.00;;;;;;5015161;28;20018;-67
2021/06/21 08:15:35;;;;;;;1.27;0.55;;;22.90;75.00;;;;;;5015018;28;20028;-66
2021/06/21 08:18:03;;;;;;;2.83;0.90;;;22.90;74.90;;;;;;5032510;28;20033;-66
2021/06/21 08:20:29;;;;;;;1.33;0.73;;;22.90;75.10;;;;;;5032830;28;20097;-66
2021/06/21 08:22:54;;;;;;;1.73;0.93;;;22.90;75.10;;;;;;5015011;28;20042;-65
2021/06/21 08:25:20;;;;;;;1.70;0.70;;;22.90;75.10;;;;;;5032654;28;20026;-67
2021/06/21 08:27:46;;;;;;;1.58;0.85;;;22.80;75.00;;;;;;5014648;28;20105;-66
2021/06/21 08:30:12;;;;;;;2.22;0.70;;;22.90;75.10;;;;;;5032670;28;20508;-67
2021/06/21 08:32:39;;;;;;;2.20;0.82;;;22.90;74.90;;;;;;5032586;28;20037;-66
2021/06/21 08:35:06;;;;;;;1.48;0.73;;;22.90;75.40;;;;;;5032604;28;20434;-66
2021/06/21 08:37:32;;;;;;;1.58;0.70;;;22.90;74.80;;;;;;5014282;28;20030;-67
2021/06/21 08:39:57;;;;;;;1.42;0.60;;;22.90;74.60;;;;;;5014659;28;20029;-67
2021/06/21 08:42:23;;;;;;;2.53;0.75;;;23.00;74.40;;;;;;5032480;28;20018;-66
2021/06/21 08:44:49;;;;;;;1.23;0.70;;;23.00;74.40;;;;;;5032417;28;20033;-66
2021/06/21 08:47:18;;;;;;;1.75;0.70;;;23.00;74.10;;;;;;5014363;28;20028;-65
2021/06/21 08:49:46;;;;;;;1.58;0.60;;;23.10;73.90;;;;;;5032233;28;20022;-67
2021/06/21 08:52:13;;;;;;;1.95;0.80;;;23.10;73.80;;;;;;5032637;28;20348;-66
2021/06/21 08:54:39;;;;;;;1.27;0.70;;;23.20;73.80;;;;;;5014358;28;20025;-66
2021/06/21 08:57:05;;;;;;;0.93;0.60;;;23.20;73.50;;;;;;5014099;28;20037;-67
2021/06/21 08:59:31;;;;;;;1.17;0.70;;;23.20;73.40;;;;;;5032449;28;20119;-66
2021/06/21 09:01:57;;;;;;;0.93;0.70;;;23.30;73.40;;;;;;5032169;28;20056;-66
2021/06/21 09:04:24;;;;;;;2.58;0.77;;;23.40;73.30;;;;;;5014312;28;20024;-66
2021/06/21 09:06:49;;;;;;;1.58;0.80;;;23.40;73.00;;;;;;5031665;28;20029;-66
2021/06/21 09:09:15;;;;;;;1.48;0.70;;;23.40;73.00;;;;;;5013594;28;20036;-67
2021/06/21 09:11:47;;;;;;;1.05;0.80;;;23.40;73.10;;;;;;5031976;28;20031;-68
2021/06/21 09:14:25;;;;;;;1.90;0.70;;;23.40;73.30;;;;;;5031954;28;20083;-67
2021/06/21 09:17:12;;;;;;;3.00;0.80;;;23.40;73.10;;;;;;5013819;28;20022;-67
2021/06/21 09:19:54;;;;;;;1.33;0.80;;;23.40;73.00;;;;;;5014086;28;20037;-66
2021/06/21 09:22:37;;;;;;;0.65;0.65;;;23.40;73.00;;;;;;5014164;28;20028;-66
2021/06/21 09:25:24;;;;;;;1.65;0.75;;;23.40;72.70;;;;;;5031819;28;20029;-67
2021/06/21 09:28:00;;;;;;;1.38;0.82;;;23.40;72.70;;;;;;5030795;28;20021;-66
2021/06/21 09:30:27;;;;;;;2.15;0.80;;;23.40;73.00;;;;;;5031801;28;20061;-65
2021/06/21 09:32:54;;;;;;;1.67;0.80;;;23.40;72.40;;;;;;5031715;28;20049;-66
2021/06/21 09:35:26;;;;;;;0.73;0.60;;;23.50;72.70;;;;;;5032046;28;20127;-67
2021/06/21 09:37:52;;;;;;;1.13;0.63;;;23.50;72.20;;;;;;5031116;28;20517;-67
2021/06/21 09:40:27;;;;;;;0.60;0.55;;;23.50;72.30;;;;;;5013948;28;20026;-67
2021/06/21 09:42:52;;;;;;;0.70;0.70;;;23.50;72.40;;;;;;5014105;28;20021;-67
2021/06/21 09:45:18;;;;;;;0.57;0.52;;;23.50;72.40;;;;;;5031468;28;20442;-67
2021/06/21 09:47:43;;;;;;;1.15;0.60;;;23.50;72.30;;;;;;5013510;28;20036;-67
2021/06/21 09:50:24;;;;;;;4.10;0.80;;;23.50;72.10;;;;;;5031470;28;20042;-66
2021/06/21 09:52:56;;;;;;;0.68;0.60;;;23.50;72.30;;;;;;5031609;28;20028;-66
2021/06/21 09:55:43;;;;;;;0.88;0.57;;;23.50;72.10;;;;;;5013837;28;20030;-66
2021/06/21 09:58:21;;;;;;;1.10;0.60;;;23.60;71.90;;;;;;5013418;28;20032;-66
2021/06/21 10:01:08;;;;;;;1.38;0.55;;;23.50;71.90;;;;;;5031232;28;20025;-67
2021/06/21 10:03:43;;;;;;;0.95;0.82;;;23.50;72.30;;;;;;5031391;28;20032;-67
2021/06/21 10:06:11;;;;;;;5.85;1.13;;;23.50;72.20;;;;;;5013209;28;20529;-67
2021/06/21 10:08:51;;;;;;;9.68;1.00;;;23.50;72.70;;;;;;5002085;28;20041;-66
2021/06/21 10:11:30;;;;;;;4.38;0.90;;;23.50;72.80;;;;;;5028474;28;20025;-67
2021/06/21 10:14:03;;;;;;;7.43;0.80;;;23.50;73.10;;;;;;5029315;28;20029;-66
2021/06/21 10:16:29;;;;;;;2.42;0.85;;;23.50;72.90;;;;;;5030688;28;20061;-67
2021/06/21 10:18:55;;;;;;;4.70;1.00;;;23.60;72.60;;;;;;5012616;28;20068;-68
2021/06/21 10:21:25;;;;;;;5.38;1.00;;;23.60;72.50;;;;;;5030691;28;20372;-68
2021/06/21 10:23:51;;;;;;;7.95;1.02;;;23.50;72.60;;;;;;5030857;28;20111;-67
2021/06/21 10:26:17;;;;;;;7.57;0.90;;;23.60;72.50;;;;;;5013482;28;20025;-67
2021/06/21 10:28:44;;;;;;;3.25;0.68;;;23.50;72.30;;;;;;5030590;28;20029;-65
2021/06/21 10:31:10;;;;;;;8.77;1.08;;;23.50;72.20;;;;;;5013411;28;20025;-67
2021/06/21 10:33:35;;;;;;;10.07;0.85;;;23.50;72.40;;;;;;5030468;28;20506;-67
2021/06/21 10:36:05;;;;;;;3.92;0.60;;;23.50;72.40;;;;;;5030519;28;20443;-68
2021/06/21 10:38:31;;;;;;;4.43;0.82;;;23.50;72.50;;;;;;5032615;28;20021;-67
2021/06/21 10:41:03;;;;;;;4.40;0.82;;;23.50;72.50;;;;;;5016787;28;20061;-67
2021/06/21 10:43:40;;;;;;;3.03;0.60;;;23.50;72.70;;;;;;5034716;28;20051;-67
2021/06/21 10:46:21;;;;;;;3.22;1.10;;;23.50;72.50;;;;;;5016770;28;20017;-66
2021/06/21 10:49:07;;;;;;;6.93;1.05;;;23.50;72.70;;;;;;5016472;28;20032;-67
2021/06/21 10:51:42;;;;;;;4.85;0.90;;;23.40;72.50;;;;;;5021776;28;20375;-67
2021/06/21 10:54:22;;;;;;;8.88;0.80;;;23.50;72.80;;;;;;5032275;28;20048;-65
2021/06/21 10:56:51;;;;;;;4.85;0.88;;;23.50;72.90;;;;;;5015891;28;20108;-67
2021/06/21 10:59:19;;;;;;;1.17;0.73;;;23.50;72.80;;;;;;5033716;28;20438;-67
2021/06/21 11:01:51;;;;;;;2.15;0.90;;;23.50;72.70;;;;;;5033055;28;20022;-66
2021/06/21 11:04:49;;;;;;;3.53;0.70;;;23.60;72.10;;;;;;5015865;28;20108;-67
2021/06/21 11:07:23;;;;;;;3.22;0.85;;;23.60;72.00;;;;;;4999405;28;20530;-67
2021/06/21 11:09:49;;;;;;;9.77;1.90;;;23.60;72.30;;;;;;5033511;28;20507;-67
2021/06/21 11:12:21;;;;;;;13.40;3.83;;;23.60;72.30;;;;;;5033443;28;20017;-67
2021/06/21 11:15:17;;;;;;;22.70;7.70;;;23.60;72.40;;;;;;5033454;28;20024;-67
2021/06/21 11:17:43;;;;;;;42.33;13.77;;;23.60;72.30;;;;;;5033001;28;20082;-67
2021/06/21 11:20:27;;;;;;;54.00;16.85;;;23.70;72.20;;;;;;5033366;28;20057;-68
2021/06/21 11:22:57;;;;;;;67.43;22.30;;;23.70;72.10;;;;;;5028605;28;20022;-69
2021/06/21 11:25:25;;;;;;;68.23;21.13;;;23.70;73.60;;;;;;5002893;28;20018;-69
2021/06/21 11:27:51;;;;;;;73.53;21.02;;;23.70;76.70;;;;;;5023915;28;20390;-74
2021/06/21 11:30:32;;;;;;;51.00;17.35;;;23.70;76.70;;;;;;5020637;28;20025;-69
2021/06/21 11:33:04;;;;;;;53.38;17.55;;;23.80;73.60;;;;;;5014037;28;20533;-70
2021/06/21 11:35:56;;;;;;;48.03;17.73;;;23.80;73.50;;;;;;5014964;28;20049;-71
2021/06/21 11:38:34;;;;;;;46.72;14.90;;;23.80;73.90;;;;;;5032341;28;20033;-69
2021/06/21 11:41:18;;;;;;;42.20;14.55;;;23.80;73.70;;;;;;5032448;28;20064;-70
2021/06/21 11:43:49;;;;;;;41.45;14.38;;;23.80;73.60;;;;;;5032699;28;20056;-70
2021/06/21 11:46:50;;;;;;;37.60;12.87;;;23.80;73.90;;;;;;5032085;28;20502;-69
2021/06/21 11:49:19;;;;;;;34.78;12.32;;;23.80;73.60;;;;;;5031226;28;20100;-70
2021/06/21 11:51:59;;;;;;;29.98;10.98;;;23.70;73.60;;;;;;5029535;28;20097;-68
2021/06/21 11:54:26;;;;;;;33.93;11.40;;;23.70;73.90;;;;;;5032357;28;20041;-68
2021/06/21 11:56:54;;;;;;;31.67;11.88;;;23.70;73.50;;;;;;5014175;28;20057;-69
2021/06/21 11:59:30;;;;;;;32.15;11.63;;;23.70;73.70;;;;;;5032085;28;20029;-68
2021/06/21 12:02:00;;;;;;;32.22;11.80;;;23.70;73.90;;;;;;5031547;28;20076;-66
2021/06/21 12:04:27;;;;;;;30.77;11.10;;;23.70;74.00;;;;;;5028824;28;20029;-68
2021/06/21 12:06:53;;;;;;;29.63;10.88;;;23.70;74.00;;;;;;5030779;28;20024;-68
2021/06/21 12:09:18;;;;;;;31.23;10.93;;;23.70;74.20;;;;;;5013897;28;20120;-68
2021/06/21 12:11:50;;;;;;;27.00;10.40;;;23.70;74.30;;;;;;5031769;28;20040;-70
2021/06/21 12:14:23;;;;;;;32.85;10.40;;;23.70;74.00;;;;;;5028939;28;20077;-69
2021/06/21 12:16:49;;;;;;;28.27;10.40;;;23.70;74.90;;;;;;5028620;28;20032;-66
2021/06/21 12:19:15;;;;;;;30.33;9.70;;;23.70;74.20;;;;;;5030163;28;20025;-67
2021/06/21 12:21:43;;;;;;;23.77;10.13;;;23.70;74.60;;;;;;5032216;28;20437;-67
2021/06/21 12:24:22;;;;;;;25.95;9.93;;;23.60;74.20;;;;;;5031738;28;20104;-67
2021/06/21 12:26:50;;;;;;;24.27;9.55;;;23.60;74.00;;;;;;5011882;28;20482;-67
2021/06/21 12:29:25;;;;;;;34.10;9.50;;;23.60;74.30;;;;;;5014207;28;20022;-68
2021/06/21 12:32:00;;;;;;;28.77;9.48;;;23.70;74.40;;;;;;5031818;28;20048;-67
2021/06/21 12:34:43;;;;;;;22.70;9.38;;;23.70;74.00;;;;;;5031878;28;20018;-66
2021/06/21 12:37:37;;;;;;;25.98;8.73;;;23.70;74.20;;;;;;5013769;28;20680;-68
2021/06/21 12:40:04;;;;;;;24.73;9.07;;;23.70;73.90;;;;;;5031888;28;20021;-66
2021/06/21 12:42:33;;;;;;;23.58;8.05;;;23.70;73.80;;;;;;5031797;28;20021;-67
2021/06/21 12:45:12;;;;;;;22.10;7.63;;;23.70;73.90;;;;;;5031730;28;20040;-68
2021/06/21 12:47:49;;;;;;;20.38;7.95;;;23.70;73.70;;;;;;5031325;28;20410;-67
2021/06/21 12:50:18;;;;;;;21.85;7.97;;;23.60;73.90;;;;;;5031566;28;20018;-67
2021/06/21 12:52:45;;;;;;;25.88;7.70;;;23.60;73.70;;;;;;5031707;28;20025;-66
2021/06/21 12:55:13;;;;;;;23.33;7.95;;;23.60;73.70;;;;;;5031589;28;20075;-67
2021/06/21 12:57:55;;;;;;;20.63;7.82;;;23.60;73.90;;;;;;5031430;28;20022;-68